Hovedside
METAR-TAF:

METAR-TAF

Lufthavner :

Kapolei, Hawaii, USA

breddegrad: 21-18-30N, lengdegrad: 158-04-05W, høyde over havet: 10 m

Gjeldene værobservasjon

Denne rapporten ble laget for 1 time og 10 minutter siden, klokken 00:53 UTC
Vind 10 kt fra Øst-nordøst med vindkast opp mot 20 kt
Temperatur 28°C
Luftfuktighet 51%
Trykk 1017 hPa
Sikt: 16.1 km
Skyfri himmel

METAR: PHJR 200053Z 06010G20KT 10SM CLR 28/17 A3002 RMK AO2 SLP172 T02830172

Tid: 16:03 (02:03 UTC)

Varsel

Denne rapporten ble laget for 2 timer og 13 minutter siden, klokken 23:50 UTC
Varsel gyldig fra 20. klokken 00 UTC til 20. klokken 24 UTC
Vind 14 kt fra Øst-nordøst med vindkast opp mot 24 kt
Sikt: 10 km
Spredte skyer i en høyde av 5000 ft
Fra 20. klokken 0900 UTC
Vind 10 kt fra Øst-nordøst med vindkast opp mot 18 kt
Sikt: 10 km
Få skyer i en høyde av 3000 ft
Spredte skyer i en høyde av 5000 ft

TAF: PHJR 192350Z 2000/2024 07014G24KT P6SM SCT050 FM200900 07010G18KT P6SM FEW030 SCT050

Værobservasjoner og værvarsel for over 4000 flyplasser (METAR- og TAF-rapporter).

Tilgjengelige stasjoner er representert av de røde og gule prikkene på kartet.

Hold musepekeren over prikken for å se navnet på stasjonen.

Klikk så for å se værobservasjoner og -varsler.

For å forandre kartet kan du klikke på den grønne knappen med svart kryss for å zoome inn, på den grønne knappen med strek for å zoome ut, eller på de grønne pilene for å se tilstøtende kart.


METAR-TAF: